createdAt,value
2023-05-19T00:00:22.916Z,64.03
2023-05-19T00:02:51.842Z,70.30
2023-05-19T00:05:20.786Z,68.03
2023-05-19T00:07:52.961Z,66.47
2023-05-19T00:10:21.578Z,65.00
2023-05-19T00:12:51.365Z,61.27
2023-05-19T00:15:21.742Z,65.63
2023-05-19T00:17:49.829Z,62.60
2023-05-19T00:20:17.904Z,61.97
2023-05-19T00:22:45.862Z,63.47
2023-05-19T00:25:15.248Z,57.83
2023-05-19T00:27:43.337Z,63.63
2023-05-19T00:30:11.844Z,55.33
2023-05-19T00:32:39.848Z,59.30
2023-05-19T00:35:08.920Z,55.90
2023-05-19T00:37:36.896Z,50.73
2023-05-19T00:40:06.527Z,63.50
2023-05-19T00:42:35.948Z,60.30
2023-05-19T00:45:04.022Z,61.70
2023-05-19T00:47:32.080Z,62.23
2023-05-19T00:50:00.433Z,59.47
2023-05-19T00:52:29.234Z,66.00
2023-05-19T00:54:57.605Z,62.37
2023-05-19T00:57:27.016Z,58.33
2023-05-19T00:59:56.496Z,59.63
2023-05-19T01:02:24.644Z,53.67
2023-05-19T01:04:53.483Z,50.73
2023-05-19T01:07:23.370Z,66.70
2023-05-19T01:09:51.491Z,58.80
2023-05-19T01:12:19.604Z,59.33
2023-05-19T01:14:47.781Z,61.53
2023-05-19T01:17:27.002Z,58.20
2023-05-19T01:20:05.038Z,60.93
2023-05-19T01:22:44.208Z,62.77
2023-05-19T01:25:48.005Z,64.40
2023-05-19T01:28:56.306Z,74.57
2023-05-19T01:31:27.707Z,64.93
2023-05-19T01:33:56.452Z,55.77
2023-05-19T01:36:27.096Z,58.93
2023-05-19T01:38:57.775Z,58.87
2023-05-19T01:41:26.276Z,54.77
2023-05-19T01:43:54.296Z,60.67
2023-05-19T01:46:23.177Z,55.47
2023-05-19T01:48:54.375Z,59.33
2023-05-19T01:51:22.416Z,63.37
2023-05-19T01:53:50.446Z,58.80
2023-05-19T01:56:27.279Z,57.67
2023-05-19T01:59:04.945Z,57.87
2023-05-19T02:01:39.469Z,60.87
2023-05-19T02:04:19.699Z,56.93
2023-05-19T02:06:56.134Z,54.77
2023-05-19T02:09:27.922Z,58.67
2023-05-19T02:12:01.219Z,53.17
2023-05-19T02:14:34.833Z,56.57
2023-05-19T02:17:05.566Z,51.33
2023-05-19T02:19:40.555Z,67.27
2023-05-19T02:22:08.667Z,56.20
2023-05-19T02:24:37.547Z,60.03
2023-05-19T02:27:06.169Z,60.87
2023-05-19T02:29:34.177Z,59.23
2023-05-19T02:32:02.804Z,59.33
2023-05-19T02:34:30.783Z,60.97
2023-05-19T02:37:00.166Z,68.30
2023-05-19T02:39:34.896Z,69.40
2023-05-19T02:42:02.905Z,64.27
2023-05-19T02:44:30.940Z,62.93
2023-05-19T02:46:58.996Z,62.83
2023-05-19T02:49:27.110Z,59.57
2023-05-19T02:51:55.100Z,63.43
2023-05-19T02:54:24.440Z,57.60
2023-05-19T02:56:52.432Z,77.70
2023-05-19T02:59:20.385Z,58.07
2023-05-19T03:01:48.481Z,58.63
2023-05-19T03:04:16.513Z,56.70
2023-05-19T03:06:45.242Z,58.37
2023-05-19T03:09:13.701Z,70.80
2023-05-19T03:11:43.154Z,51.90
2023-05-19T03:14:12.047Z,63.57
2023-05-19T03:16:41.214Z,59.00
2023-05-19T03:19:09.900Z,46.67
2023-05-19T03:21:38.087Z,55.07
2023-05-19T03:24:06.678Z,49.97
2023-05-19T03:26:34.954Z,59.93
2023-05-19T03:29:04.350Z,67.00
2023-05-19T03:31:32.353Z,67.33
2023-05-19T03:34:00.461Z,74.47
2023-05-19T03:36:31.996Z,72.93
2023-05-19T03:39:00.158Z,76.90
2023-05-19T03:41:28.156Z,80.80
2023-05-19T03:43:56.162Z,74.47
2023-05-19T03:46:25.797Z,81.70
2023-05-19T03:48:53.924Z,80.83
2023-05-19T03:51:21.924Z,84.10
2023-05-19T03:53:49.921Z,81.60
2023-05-19T03:56:18.271Z,82.90
2023-05-19T03:58:47.107Z,53.43
2023-05-19T04:01:15.137Z,85.57
2023-05-19T04:03:44.540Z,55.70
2023-05-19T04:06:12.912Z,64.43
2023-05-19T04:08:41.016Z,63.80
2023-05-19T04:11:08.985Z,66.90
2023-05-19T04:13:36.967Z,67.60
2023-05-19T04:16:05.466Z,70.30
2023-05-19T04:18:33.495Z,73.90
2023-05-19T04:21:02.871Z,77.97
2023-05-19T04:23:31.610Z,75.20
2023-05-19T04:26:01.523Z,84.27
2023-05-19T04:28:29.886Z,102.83
2023-05-19T04:30:58.786Z,98.03
2023-05-19T04:33:29.323Z,113.63
2023-05-19T04:35:58.382Z,113.53
2023-05-19T04:38:29.957Z,114.40
2023-05-19T04:41:01.624Z,107.53
2023-05-19T04:43:29.757Z,115.07
2023-05-19T04:45:58.179Z,110.67
2023-05-19T04:48:27.400Z,118.23
2023-05-19T04:50:55.415Z,114.20
2023-05-19T04:53:25.658Z,76.20
2023-05-19T04:55:55.028Z,109.60
2023-05-19T04:58:25.718Z,113.33
2023-05-19T05:00:55.726Z,131.93
2023-05-19T05:03:23.971Z,119.83
2023-05-19T05:05:52.436Z,125.60
2023-05-19T05:08:23.142Z,126.77
2023-05-19T05:10:52.350Z,118.80
2023-05-19T05:13:23.948Z,124.17
2023-05-19T05:15:53.164Z,124.47
2023-05-19T05:18:21.886Z,127.77
2023-05-19T05:20:50.451Z,120.87
2023-05-19T05:23:19.157Z,126.43
2023-05-19T05:25:48.849Z,112.17
2023-05-19T05:28:17.201Z,88.27
2023-05-19T05:30:46.595Z,84.40
2023-05-19T05:33:14.774Z,85.57
2023-05-19T05:35:42.909Z,92.23
2023-05-19T05:38:11.535Z,96.67
2023-05-19T05:40:39.608Z,97.23
2023-05-19T05:43:07.614Z,89.83
2023-05-19T05:45:35.757Z,97.40
2023-05-19T05:48:06.226Z,101.57
2023-05-19T05:50:35.099Z,97.70
2023-05-19T05:53:04.669Z,111.77
2023-05-19T05:55:33.660Z,102.77
2023-05-19T05:58:02.314Z,111.10
2023-05-19T06:00:30.560Z,116.10
2023-05-19T06:02:59.234Z,137.83
2023-05-19T06:05:28.772Z,148.03
2023-05-19T06:07:57.010Z,165.93
2023-05-19T06:10:25.038Z,131.30
2023-05-19T06:12:53.144Z,149.70
2023-05-19T06:15:21.146Z,166.53
2023-05-19T06:17:49.216Z,183.37
2023-05-19T06:20:17.480Z,188.53
2023-05-19T06:22:46.816Z,177.23
2023-05-19T06:25:14.892Z,184.83
2023-05-19T06:27:43.539Z,184.10
2023-05-19T06:30:12.406Z,184.13
2023-05-19T06:32:40.573Z,161.23
2023-05-19T06:35:09.437Z,184.87
2023-05-19T06:37:37.411Z,187.47
2023-05-19T06:40:08.227Z,186.47
2023-05-19T06:42:36.251Z,190.10
2023-05-19T06:45:04.392Z,194.90
2023-05-19T06:47:32.454Z,185.77
2023-05-19T06:50:00.427Z,190.10
2023-05-19T06:52:28.463Z,179.40
2023-05-19T06:54:56.497Z,186.83
2023-05-19T06:57:25.861Z,190.07
2023-05-19T06:59:53.846Z,203.33
2023-05-19T07:02:21.843Z,196.67
2023-05-19T07:04:51.334Z,198.63
2023-05-19T07:07:19.335Z,209.80
2023-05-19T07:09:47.423Z,203.30
2023-05-19T07:12:15.483Z,199.73
2023-05-19T07:14:44.818Z,196.63
2023-05-19T07:17:12.836Z,200.70
2023-05-19T07:19:40.830Z,217.97
2023-05-19T07:22:08.819Z,221.20
2023-05-19T07:24:36.873Z,221.23
2023-05-19T07:27:05.315Z,251.57
2023-05-19T07:29:33.306Z,254.97
2023-05-19T07:32:02.817Z,235.73
2023-05-19T07:34:30.914Z,250.63
2023-05-19T07:36:58.954Z,267.10
2023-05-19T07:39:29.684Z,241.33
2023-05-19T07:41:57.993Z,271.57
2023-05-19T07:44:27.077Z,288.60
2023-05-19T07:46:55.147Z,295.83
2023-05-19T07:49:24.677Z,312.37
2023-05-19T07:51:52.728Z,307.80
2023-05-19T07:54:20.934Z,314.97
2023-05-19T07:56:49.184Z,313.47
2023-05-19T07:59:17.626Z,268.27
2023-05-19T08:01:45.734Z,305.20
2023-05-19T08:04:14.074Z,313.47
2023-05-19T08:06:44.553Z,329.57
2023-05-19T08:09:12.950Z,303.73
2023-05-19T08:11:41.084Z,315.47
2023-05-19T08:14:09.085Z,323.43
2023-05-19T08:16:37.117Z,323.00
2023-05-19T08:19:06.834Z,309.20
2023-05-19T08:21:35.526Z,308.65
2023-05-19T08:24:05.347Z,318.10
2023-05-19T08:26:35.060Z,80.13
2023-05-19T08:29:04.357Z,84.25
2023-05-19T08:31:32.672Z,85.78
2023-05-19T08:34:00.748Z,121.70
2023-05-19T08:36:29.455Z,189.73
2023-05-19T08:38:57.542Z,160.65
2023-05-19T08:41:27.054Z,247.25
2023-05-19T08:43:55.218Z,291.75
2023-05-19T08:46:25.986Z,321.10
2023-05-19T08:48:59.381Z,316.15
2023-05-19T08:51:37.817Z,330.03
2023-05-19T08:54:13.890Z,327.10
2023-05-19T08:56:44.855Z,335.40
2023-05-19T08:59:14.271Z,334.83
2023-05-19T09:01:45.626Z,333.35
2023-05-19T09:04:14.684Z,340.97
2023-05-19T09:06:44.988Z,331.48
2023-05-19T09:09:13.393Z,348.13
2023-05-19T09:11:41.483Z,346.20
2023-05-19T09:14:11.489Z,351.55
2023-05-19T09:16:40.133Z,359.30
2023-05-19T09:19:16.026Z,369.80
2023-05-19T09:21:45.718Z,381.42
2023-05-19T09:24:13.852Z,383.80
2023-05-19T09:26:43.609Z,397.02
2023-05-19T09:29:16.737Z,402.55
2023-05-19T09:31:55.962Z,330.27
2023-05-19T09:34:25.033Z,396.52
2023-05-19T09:36:54.230Z,412.70
2023-05-19T09:39:25.199Z,420.65
2023-05-19T09:41:53.816Z,434.30
2023-05-19T09:44:29.358Z,455.15
2023-05-19T09:46:58.275Z,465.80
2023-05-19T09:49:29.461Z,476.98
2023-05-19T09:51:58.616Z,492.08
2023-05-19T09:54:29.553Z,495.15
2023-05-19T09:57:01.327Z,482.98
2023-05-19T09:59:33.544Z,478.60
2023-05-19T10:02:03.372Z,477.00
2023-05-19T10:04:32.341Z,483.05
2023-05-19T10:07:00.859Z,449.45
2023-05-19T10:09:29.862Z,471.98
2023-05-19T10:11:59.226Z,481.38
2023-05-19T10:14:28.146Z,478.10
2023-05-19T10:16:59.484Z,473.90
2023-05-19T10:19:28.909Z,477.95
2023-05-19T10:21:57.382Z,473.85
2023-05-19T10:24:25.440Z,461.45
2023-05-19T10:26:58.141Z,472.10
2023-05-19T10:29:29.908Z,477.63
2023-05-19T10:32:05.291Z,456.40
2023-05-19T10:35:02.999Z,482.17
2023-05-19T10:37:40.931Z,482.13
2023-05-19T10:40:14.803Z,485.83
2023-05-19T10:42:52.425Z,481.88
2023-05-19T10:45:24.979Z,490.60
2023-05-19T10:47:56.073Z,491.45
2023-05-19T10:50:24.190Z,494.45
2023-05-19T10:52:55.647Z,217.18
2023-05-19T10:55:48.787Z,233.88
2023-05-19T10:58:16.929Z,359.95
2023-05-19T11:00:44.992Z,514.10
2023-05-19T11:03:18.851Z,513.08
2023-05-19T11:05:50.001Z,520.58
2023-05-19T11:08:18.719Z,527.72
2023-05-19T11:10:47.027Z,554.58
2023-05-19T11:13:22.992Z,545.92
2023-05-19T11:15:51.295Z,547.40
2023-05-19T11:18:21.419Z,549.00
2023-05-19T11:20:58.085Z,548.97
2023-05-19T11:23:27.179Z,533.00
2023-05-19T11:25:55.191Z,473.35
2023-05-19T11:28:26.101Z,539.78
2023-05-19T11:30:57.826Z,546.45
2023-05-19T11:33:28.061Z,541.08
2023-05-19T11:35:58.895Z,552.42
2023-05-19T11:38:28.448Z,559.42
2023-05-19T11:40:57.075Z,516.72
2023-05-19T11:43:25.754Z,593.58
2023-05-19T11:45:55.776Z,447.48
2023-05-19T11:48:24.546Z,610.22
2023-05-19T11:50:54.335Z,621.10
2023-05-19T11:53:22.570Z,627.70
2023-05-19T11:55:51.098Z,633.15
2023-05-19T11:58:19.548Z,643.20
2023-05-19T12:00:48.051Z,652.35
2023-05-19T12:03:17.368Z,662.53
2023-05-19T12:05:47.592Z,650.05
2023-05-19T12:08:18.597Z,650.83
2023-05-19T12:10:49.440Z,640.97
2023-05-19T12:13:17.809Z,639.28
2023-05-19T12:15:45.963Z,636.33
2023-05-19T12:18:14.052Z,641.88
2023-05-19T12:20:42.256Z,638.65
2023-05-19T12:23:10.808Z,629.25
2023-05-19T12:25:40.391Z,633.97
2023-05-19T12:28:08.485Z,640.70
2023-05-19T12:30:36.929Z,637.42
2023-05-19T12:33:05.388Z,651.50
2023-05-19T12:35:34.366Z,648.88
2023-05-19T12:38:05.667Z,648.72
2023-05-19T12:40:35.298Z,656.92
2023-05-19T12:43:05.729Z,646.13
2023-05-19T12:45:36.092Z,652.80
2023-05-19T12:48:05.982Z,647.38
2023-05-19T12:50:35.382Z,639.45
2023-05-19T12:53:03.694Z,636.53
2023-05-19T12:55:31.929Z,523.65
2023-05-19T12:58:00.388Z,586.72
2023-05-19T13:00:31.144Z,617.40
2023-05-19T13:03:01.990Z,616.28
2023-05-19T13:05:31.933Z,618.70
2023-05-19T13:08:01.987Z,621.80
2023-05-19T13:10:31.388Z,617.28
2023-05-19T13:13:01.094Z,610.72
2023-05-19T13:15:34.198Z,619.15
2023-05-19T13:18:03.869Z,613.30
2023-05-19T13:20:32.232Z,614.88
2023-05-19T13:23:00.792Z,626.78
2023-05-19T13:25:29.135Z,633.78
2023-05-19T13:27:59.351Z,634.17
2023-05-19T13:30:27.413Z,635.95
2023-05-19T13:32:57.046Z,626.40
2023-05-19T13:35:25.214Z,625.22
2023-05-19T13:37:53.249Z,616.30
2023-05-19T13:40:21.384Z,616.58
2023-05-19T13:42:49.873Z,607.78
2023-05-19T13:45:18.333Z,607.33
2023-05-19T13:47:46.412Z,600.58
2023-05-19T13:50:15.836Z,599.85
2023-05-19T13:52:43.932Z,598.35
2023-05-19T13:55:11.952Z,606.60
2023-05-19T13:57:41.543Z,595.35
2023-05-19T14:00:11.568Z,600.38
2023-05-19T14:02:39.951Z,601.97
2023-05-19T14:05:08.886Z,605.30
2023-05-19T14:07:38.428Z,598.95
2023-05-19T14:10:07.544Z,600.60
2023-05-19T14:12:43.713Z,591.80
2023-05-19T14:15:15.587Z,561.47
2023-05-19T14:17:43.679Z,204.30
2023-05-19T14:20:12.709Z,465.23
2023-05-19T14:22:42.301Z,406.13
2023-05-19T14:25:10.609Z,411.95
2023-05-19T14:27:39.861Z,318.80
2023-05-19T14:30:09.601Z,240.63
2023-05-19T14:32:37.620Z,485.48
2023-05-19T14:35:06.541Z,573.55
2023-05-19T14:37:34.529Z,560.55
2023-05-19T14:40:04.569Z,399.17
2023-05-19T14:42:32.618Z,616.47
2023-05-19T14:45:00.940Z,617.00
2023-05-19T14:47:28.989Z,618.28
2023-05-19T14:49:57.070Z,221.23
2023-05-19T14:52:26.182Z,630.95
2023-05-19T14:54:54.351Z,647.45
2023-05-19T14:57:23.850Z,650.30
2023-05-19T14:59:51.946Z,653.42
2023-05-19T15:02:19.964Z,650.13
2023-05-19T15:04:48.165Z,640.42
2023-05-19T15:07:16.378Z,627.95
2023-05-19T15:09:44.738Z,594.58
2023-05-19T15:12:12.763Z,601.03
2023-05-19T15:14:42.201Z,597.33
2023-05-19T15:17:10.295Z,571.63
2023-05-19T15:19:38.612Z,558.75
2023-05-19T15:22:06.815Z,560.35
2023-05-19T15:24:34.930Z,565.95
2023-05-19T15:27:03.241Z,571.25
2023-05-19T15:29:31.272Z,540.13
2023-05-19T15:32:00.668Z,93.03
2023-05-19T15:34:28.653Z,105.97
2023-05-19T15:36:56.664Z,224.60
2023-05-19T15:39:24.677Z,141.32
2023-05-19T15:41:52.756Z,136.95
2023-05-19T15:44:20.738Z,446.50
2023-05-19T15:46:48.843Z,158.55
2023-05-19T15:49:18.290Z,135.27
2023-05-19T15:51:46.594Z,214.85
2023-05-19T15:54:14.589Z,268.38
2023-05-19T15:56:42.602Z,133.93
2023-05-19T15:59:10.589Z,208.57
2023-05-19T16:01:38.700Z,325.58
2023-05-19T16:04:06.846Z,380.75
2023-05-19T16:06:36.258Z,381.40
2023-05-19T16:09:04.808Z,466.85
2023-05-19T16:11:32.798Z,643.47
2023-05-19T16:14:00.892Z,636.55
2023-05-19T16:16:28.863Z,633.20
2023-05-19T16:18:57.019Z,622.47
2023-05-19T16:21:25.036Z,619.65
2023-05-19T16:23:54.450Z,596.05
2023-05-19T16:26:22.737Z,605.05
2023-05-19T16:28:50.820Z,633.22
2023-05-19T16:31:18.817Z,627.35
2023-05-19T16:33:47.244Z,625.22
2023-05-19T16:36:15.256Z,333.02
2023-05-19T16:38:43.269Z,552.15
2023-05-19T16:41:13.988Z,182.00
2023-05-19T16:43:42.007Z,164.77
2023-05-19T16:46:12.135Z,124.22
2023-05-19T16:48:40.358Z,158.88
2023-05-19T16:51:08.330Z,506.27
2023-05-19T16:53:36.316Z,504.95
2023-05-19T16:56:04.488Z,177.35
2023-05-19T16:58:33.952Z,162.93
2023-05-19T17:01:02.850Z,165.82
2023-05-19T17:03:31.833Z,539.33
2023-05-19T17:06:00.914Z,535.22
2023-05-19T17:08:28.895Z,528.95
2023-05-19T17:10:56.895Z,533.38
2023-05-19T17:13:24.870Z,527.55
2023-05-19T17:15:54.331Z,537.35
2023-05-19T17:18:22.321Z,175.93
2023-05-19T17:20:50.625Z,155.43
2023-05-19T17:23:18.860Z,503.95
2023-05-19T17:25:47.160Z,170.77
2023-05-19T17:28:15.172Z,257.13
2023-05-19T17:30:43.170Z,507.02
2023-05-19T17:33:12.944Z,459.25
2023-05-19T17:35:41.365Z,487.38
2023-05-19T17:38:09.428Z,499.73
2023-05-19T17:40:38.604Z,451.67
2023-05-19T17:43:08.230Z,440.00
2023-05-19T17:45:36.244Z,447.05
2023-05-19T17:48:06.033Z,386.55
2023-05-19T17:50:35.571Z,426.98
2023-05-19T17:53:04.283Z,442.45
2023-05-19T17:55:32.911Z,454.30
2023-05-19T17:58:01.419Z,452.63
2023-05-19T18:00:30.156Z,447.73
2023-05-19T18:02:59.058Z,53.80
2023-05-19T18:05:27.927Z,217.10
2023-05-19T18:07:58.431Z,279.67
2023-05-19T18:10:28.419Z,104.40
2023-05-19T18:12:56.594Z,76.60
2023-05-19T18:15:25.595Z,276.13
2023-05-19T18:17:53.613Z,424.48
2023-05-19T18:20:21.825Z,190.65
2023-05-19T18:22:49.860Z,400.73
2023-05-19T18:25:20.071Z,180.45
2023-05-19T18:27:48.104Z,131.55
2023-05-19T18:30:16.232Z,380.17
2023-05-19T18:32:44.334Z,365.70
2023-05-19T18:35:12.541Z,388.15
2023-05-19T18:37:40.958Z,51.38
2023-05-19T18:40:09.872Z,354.48
2023-05-19T18:42:39.257Z,59.83
2023-05-19T18:45:08.312Z,299.13
2023-05-19T18:47:36.695Z,70.97
2023-05-19T18:50:05.097Z,82.53
2023-05-19T18:52:33.133Z,326.33
2023-05-19T18:55:01.228Z,146.68
2023-05-19T18:57:29.256Z,58.90
2023-05-19T18:59:58.623Z,254.30
2023-05-19T19:02:26.717Z,58.17
2023-05-19T19:04:54.770Z,80.05
2023-05-19T19:07:23.135Z,325.25
2023-05-19T19:09:51.766Z,244.18
2023-05-19T19:12:20.474Z,47.33
2023-05-19T19:14:48.763Z,26.70
2023-05-19T19:17:18.201Z,44.00
2023-05-19T19:19:47.307Z,39.15
2023-05-19T19:22:15.599Z,97.47
2023-05-19T19:24:43.793Z,62.35
2023-05-19T19:27:11.990Z,100.35
2023-05-19T19:29:40.063Z,52.97
2023-05-19T19:32:08.627Z,48.13
2023-05-19T19:34:38.408Z,37.85
2023-05-19T19:37:06.435Z,53.03
2023-05-19T19:39:34.425Z,288.98
2023-05-19T19:42:02.509Z,276.08
2023-05-19T19:44:30.521Z,57.88
2023-05-19T19:46:58.539Z,55.97
2023-05-19T19:49:26.894Z,71.85
2023-05-19T19:51:56.290Z,25.27
2023-05-19T19:54:24.322Z,24.10
2023-05-19T19:56:52.303Z,100.53
2023-05-19T19:59:20.819Z,299.60
2023-05-19T20:01:48.960Z,132.63
2023-05-19T20:04:17.193Z,219.00
2023-05-19T20:06:45.670Z,268.88
2023-05-19T20:09:15.113Z,48.97
2023-05-19T20:11:43.504Z,271.30
2023-05-19T20:14:11.519Z,41.17
2023-05-19T20:16:40.395Z,37.60
2023-05-19T20:19:09.454Z,26.73
2023-05-19T20:21:37.648Z,266.05
2023-05-19T20:24:06.104Z,34.70
2023-05-19T20:26:36.234Z,44.67
2023-05-19T20:29:04.239Z,48.95
2023-05-19T20:31:32.286Z,57.50
2023-05-19T20:34:01.658Z,56.47
2023-05-19T20:36:30.156Z,51.55
2023-05-19T20:38:58.261Z,43.33
2023-05-19T20:41:26.315Z,30.33
2023-05-19T20:43:57.222Z,74.25
2023-05-19T20:46:25.505Z,35.45
2023-05-19T20:48:53.593Z,76.75
2023-05-19T20:51:22.277Z,59.03
2023-05-19T20:53:50.554Z,77.80
2023-05-19T20:56:18.621Z,203.70
2023-05-19T20:58:46.831Z,59.15
2023-05-19T21:01:16.285Z,230.83
2023-05-19T21:03:44.256Z,179.32
2023-05-19T21:06:13.966Z,41.33
2023-05-19T21:08:42.213Z,247.27
2023-05-19T21:11:10.192Z,42.40
2023-05-19T21:13:39.247Z,53.92
2023-05-19T21:16:07.861Z,44.72
2023-05-19T21:18:37.412Z,244.10
2023-05-19T21:21:05.691Z,200.70
2023-05-19T21:23:33.674Z,202.93
2023-05-19T21:26:01.698Z,199.67
2023-05-19T21:28:29.688Z,210.07
2023-05-19T21:30:57.699Z,183.70
2023-05-19T21:33:25.713Z,31.97
2023-05-19T21:35:55.045Z,68.95
2023-05-19T21:38:24.342Z,26.67
2023-05-19T21:40:53.054Z,45.93
2023-05-19T21:43:21.797Z,49.92
2023-05-19T21:45:49.913Z,81.82
2023-05-19T21:48:18.081Z,43.38
2023-05-19T21:50:46.149Z,61.90
2023-05-19T21:53:15.584Z,64.20
2023-05-19T21:55:44.274Z,26.25
2023-05-19T21:58:12.288Z,44.28
2023-05-19T22:00:40.454Z,20.17
2023-05-19T22:03:08.659Z,21.60
2023-05-19T22:05:38.112Z,14.20
2023-05-19T22:08:06.343Z,34.25
2023-05-19T22:10:37.084Z,172.97
2023-05-19T22:13:05.475Z,168.97
2023-05-19T22:15:33.469Z,171.10
2023-05-19T22:18:01.538Z,32.77
2023-05-19T22:20:29.609Z,38.97
2023-05-19T22:22:59.314Z,29.50
2023-05-19T22:25:27.464Z,28.42
2023-05-19T22:27:57.071Z,35.87
2023-05-19T22:30:25.323Z,26.63
2023-05-19T22:32:53.399Z,26.57
2023-05-19T22:35:21.579Z,18.10
2023-05-19T22:37:51.169Z,24.27
2023-05-19T22:40:19.302Z,41.33
2023-05-19T22:42:47.449Z,126.00
2023-05-19T22:45:16.820Z,26.80
2023-05-19T22:47:44.921Z,25.43
2023-05-19T22:50:13.200Z,42.22
2023-05-19T22:52:41.194Z,21.83
2023-05-19T22:55:10.036Z,29.37
2023-05-19T22:57:38.021Z,28.67
2023-05-19T23:00:07.027Z,23.43
2023-05-19T23:02:36.768Z,40.33
2023-05-19T23:05:05.108Z,101.60
2023-05-19T23:07:33.114Z,153.63
2023-05-19T23:10:01.132Z,147.27
2023-05-19T23:12:29.172Z,10.73
2023-05-19T23:14:57.215Z,20.17
2023-05-19T23:17:25.290Z,20.70
2023-05-19T23:19:54.845Z,20.10
2023-05-19T23:22:22.934Z,34.23
2023-05-19T23:24:51.087Z,30.57
2023-05-19T23:27:19.531Z,25.00
2023-05-19T23:29:49.770Z,130.43
2023-05-19T23:32:17.856Z,9.47
2023-05-19T23:34:45.894Z,16.53
2023-05-19T23:37:15.302Z,26.77
2023-05-19T23:39:43.318Z,30.37
2023-05-19T23:42:11.524Z,15.97
2023-05-19T23:44:39.514Z,28.57
2023-05-19T23:47:07.612Z,104.63
2023-05-19T23:49:35.764Z,24.03
2023-05-19T23:52:03.761Z,20.97
2023-05-19T23:54:33.089Z,129.37
2023-05-19T23:57:04.123Z,143.80
2023-05-19T23:59:32.160Z,50.33
